sensor_id;sensor_type;location;lat;lon;timestamp;P1;durP1;ratioP1;P2;durP2;ratioP2
23009;SDS011;11671;49.990;8.028;2023-05-07T00:01:47;3.13;;;1.98;;
23009;SDS011;11671;49.990;8.028;2023-05-07T00:06:39;3.80;;;1.60;;
23009;SDS011;11671;49.990;8.028;2023-05-07T00:11:30;3.22;;;1.45;;
23009;SDS011;11671;49.990;8.028;2023-05-07T00:16:21;5.45;;;1.70;;
23009;SDS011;11671;49.990;8.028;2023-05-07T00:18:47;4.20;;;1.60;;
23009;SDS011;11671;49.990;8.028;2023-05-07T00:21:13;3.25;;;2.00;;
23009;SDS011;11671;49.990;8.028;2023-05-07T00:23:39;3.45;;;1.70;;
23009;SDS011;11671;49.990;8.028;2023-05-07T00:28:30;11.45;;;2.05;;
23009;SDS011;11671;49.990;8.028;2023-05-07T00:30:55;3.80;;;1.70;;
23009;SDS011;11671;49.990;8.028;2023-05-07T00:35:47;3.22;;;1.52;;
23009;SDS011;11671;49.990;8.028;2023-05-07T00:40:39;5.10;;;1.67;;
23009;SDS011;11671;49.990;8.028;2023-05-07T00:43:05;3.28;;;1.60;;
23009;SDS011;11671;49.990;8.028;2023-05-07T00:45:30;3.25;;;1.73;;
23009;SDS011;11671;49.990;8.028;2023-05-07T00:52:50;6.72;;;2.60;;
23009;SDS011;11671;49.990;8.028;2023-05-07T00:55:20;15.30;;;8.27;;
23009;SDS011;11671;49.990;8.028;2023-05-07T00:57:46;3.15;;;1.70;;
23009;SDS011;11671;49.990;8.028;2023-05-07T01:02:38;3.72;;;1.77;;
23009;SDS011;11671;49.990;8.028;2023-05-07T01:07:31;4.80;;;1.60;;
23009;SDS011;11671;49.990;8.028;2023-05-07T01:10:01;3.20;;;1.60;;
23009;SDS011;11671;49.990;8.028;2023-05-07T01:12:29;3.20;;;1.27;;
23009;SDS011;11671;49.990;8.028;2023-05-07T01:14:56;5.65;;;1.70;;
23009;SDS011;11671;49.990;8.028;2023-05-07T01:17:22;4.43;;;1.80;;
23009;SDS011;11671;49.990;8.028;2023-05-07T01:22:15;3.20;;;1.53;;
23009;SDS011;11671;49.990;8.028;2023-05-07T01:24:45;4.70;;;1.67;;
23009;SDS011;11671;49.990;8.028;2023-05-07T01:29:37;3.60;;;2.10;;
23009;SDS011;11671;49.990;8.028;2023-05-07T01:32:02;6.95;;;1.52;;
23009;SDS011;11671;49.990;8.028;2023-05-07T01:34:30;2.30;;;1.45;;
23009;SDS011;11671;49.990;8.028;2023-05-07T01:36:58;5.65;;;2.17;;
23009;SDS011;11671;49.990;8.028;2023-05-07T01:39:24;5.88;;;2.22;;
23009;SDS011;11671;49.990;8.028;2023-05-07T01:41:52;5.22;;;1.95;;
23009;SDS011;11671;49.990;8.028;2023-05-07T01:44:21;2.80;;;1.70;;
23009;SDS011;11671;49.990;8.028;2023-05-07T01:46:48;5.10;;;1.73;;
23009;SDS011;11671;49.990;8.028;2023-05-07T01:49:15;4.47;;;1.80;;
23009;SDS011;11671;49.990;8.028;2023-05-07T01:51:41;5.85;;;2.20;;
23009;SDS011;11671;49.990;8.028;2023-05-07T01:54:08;3.15;;;1.90;;
23009;SDS011;11671;49.990;8.028;2023-05-07T01:59:00;4.32;;;2.03;;
23009;SDS011;11671;49.990;8.028;2023-05-07T02:03:51;4.70;;;2.28;;
23009;SDS011;11671;49.990;8.028;2023-05-07T02:06:16;4.63;;;1.90;;
23009;SDS011;11671;49.990;8.028;2023-05-07T02:08:42;5.00;;;2.38;;
23009;SDS011;11671;49.990;8.028;2023-05-07T02:13:33;3.78;;;2.15;;
23009;SDS011;11671;49.990;8.028;2023-05-07T02:18:25;4.45;;;2.13;;
23009;SDS011;11671;49.990;8.028;2023-05-07T02:23:16;5.18;;;1.98;;
23009;SDS011;11671;49.990;8.028;2023-05-07T02:25:42;3.58;;;2.08;;
23009;SDS011;11671;49.990;8.028;2023-05-07T02:28:07;5.18;;;1.92;;
23009;SDS011;11671;49.990;8.028;2023-05-07T02:30:33;4.18;;;2.30;;
23009;SDS011;11671;49.990;8.028;2023-05-07T02:35:25;4.15;;;2.22;;
23009;SDS011;11671;49.990;8.028;2023-05-07T02:37:51;4.10;;;2.03;;
23009;SDS011;11671;49.990;8.028;2023-05-07T02:42:42;4.03;;;1.88;;
23009;SDS011;11671;49.990;8.028;2023-05-07T02:45:07;5.80;;;2.28;;
23009;SDS011;11671;49.990;8.028;2023-05-07T02:47:34;2.92;;;1.98;;
23009;SDS011;11671;49.990;8.028;2023-05-07T02:52:25;10.27;;;1.80;;
23009;SDS011;11671;49.990;8.028;2023-05-07T02:54:50;3.70;;;1.88;;
23009;SDS011;11671;49.990;8.028;2023-05-07T02:59:42;4.80;;;1.80;;
23009;SDS011;11671;49.990;8.028;2023-05-07T03:04:33;3.15;;;1.73;;
23009;SDS011;11671;49.990;8.028;2023-05-07T03:09:24;2.22;;;1.63;;
23009;SDS011;11671;49.990;8.028;2023-05-07T03:11:50;4.45;;;1.92;;
23009;SDS011;11671;49.990;8.028;2023-05-07T03:16:41;3.85;;;1.90;;
23009;SDS011;11671;49.990;8.028;2023-05-07T03:19:07;4.03;;;1.80;;
23009;SDS011;11671;49.990;8.028;2023-05-07T03:21:32;5.65;;;1.90;;
23009;SDS011;11671;49.990;8.028;2023-05-07T03:23:59;2.42;;;1.70;;
23009;SDS011;11671;49.990;8.028;2023-05-07T03:28:51;3.60;;;1.70;;
23009;SDS011;11671;49.990;8.028;2023-05-07T03:33:52;3.17;;;1.63;;
23009;SDS011;11671;49.990;8.028;2023-05-07T03:36:19;3.88;;;1.75;;
23009;SDS011;11671;49.990;8.028;2023-05-07T03:38:45;2.78;;;1.48;;
23009;SDS011;11671;49.990;8.028;2023-05-07T03:43:37;3.88;;;1.70;;
23009;SDS011;11671;49.990;8.028;2023-05-07T03:48:28;2.17;;;1.70;;
23009;SDS011;11671;49.990;8.028;2023-05-07T03:53:19;5.55;;;2.40;;
23009;SDS011;11671;49.990;8.028;2023-05-07T03:58:10;7.93;;;2.50;;
23009;SDS011;11671;49.990;8.028;2023-05-07T04:00:35;4.45;;;2.28;;
23009;SDS011;11671;49.990;8.028;2023-05-07T04:03:03;5.45;;;2.42;;
23009;SDS011;11671;49.990;8.028;2023-05-07T04:05:30;3.20;;;2.30;;
23009;SDS011;11671;49.990;8.028;2023-05-07T04:10:22;2.85;;;2.42;;
23009;SDS011;11671;49.990;8.028;2023-05-07T04:15:13;6.32;;;2.55;;
23009;SDS011;11671;49.990;8.028;2023-05-07T04:17:39;3.65;;;2.28;;
23009;SDS011;11671;49.990;8.028;2023-05-07T04:20:06;4.85;;;2.63;;
23009;SDS011;11671;49.990;8.028;2023-05-07T04:22:35;4.57;;;1.98;;
23009;SDS011;11671;49.990;8.028;2023-05-07T04:27:27;3.22;;;2.17;;
23009;SDS011;11671;49.990;8.028;2023-05-07T04:32:21;4.63;;;1.92;;
23009;SDS011;11671;49.990;8.028;2023-05-07T04:34:47;6.15;;;2.45;;
23009;SDS011;11671;49.990;8.028;2023-05-07T04:39:38;4.40;;;1.98;;
23009;SDS011;11671;49.990;8.028;2023-05-07T04:44:30;7.07;;;2.30;;
23009;SDS011;11671;49.990;8.028;2023-05-07T04:49:21;2.85;;;1.90;;
23009;SDS011;11671;49.990;8.028;2023-05-07T04:54:13;4.50;;;1.90;;
23009;SDS011;11671;49.990;8.028;2023-05-07T04:59:04;5.60;;;2.33;;
23009;SDS011;11671;49.990;8.028;2023-05-07T05:01:30;3.10;;;1.92;;
23009;SDS011;11671;49.990;8.028;2023-05-07T05:03:57;5.00;;;2.10;;
23009;SDS011;11671;49.990;8.028;2023-05-07T05:08:48;2.78;;;1.90;;
23009;SDS011;11671;49.990;8.028;2023-05-07T05:15:28;3.43;;;2.27;;
23009;SDS011;11671;49.990;8.028;2023-05-07T05:17:53;2.97;;;1.58;;
23009;SDS011;11671;49.990;8.028;2023-05-07T05:22:44;5.18;;;2.10;;
23009;SDS011;11671;49.990;8.028;2023-05-07T05:27:35;5.50;;;2.00;;
23009;SDS011;11671;49.990;8.028;2023-05-07T05:30:01;2.97;;;2.03;;
23009;SDS011;11671;49.990;8.028;2023-05-07T05:34:52;2.42;;;1.60;;
23009;SDS011;11671;49.990;8.028;2023-05-07T05:37:18;4.20;;;1.92;;
23009;SDS011;11671;49.990;8.028;2023-05-07T05:42:09;2.67;;;1.90;;
23009;SDS011;11671;49.990;8.028;2023-05-07T05:44:34;6.80;;;1.52;;
23009;SDS011;11671;49.990;8.028;2023-05-07T05:47:00;3.10;;;1.63;;
23009;SDS011;11671;49.990;8.028;2023-05-07T05:49:26;4.63;;;2.33;;
23009;SDS011;11671;49.990;8.028;2023-05-07T05:51:51;4.05;;;1.67;;
23009;SDS011;11671;49.990;8.028;2023-05-07T05:54:17;2.55;;;1.30;;
23009;SDS011;11671;49.990;8.028;2023-05-07T05:59:08;2.70;;;1.45;;
23009;SDS011;11671;49.990;8.028;2023-05-07T06:01:34;3.55;;;1.52;;
23009;SDS011;11671;49.990;8.028;2023-05-07T06:03:59;3.58;;;1.50;;
23009;SDS011;11671;49.990;8.028;2023-05-07T06:06:25;4.15;;;1.92;;
23009;SDS011;11671;49.990;8.028;2023-05-07T06:08:51;3.20;;;1.75;;
23009;SDS011;11671;49.990;8.028;2023-05-07T06:11:16;2.88;;;1.60;;
23009;SDS011;11671;49.990;8.028;2023-05-07T06:13:42;4.60;;;1.58;;
23009;SDS011;11671;49.990;8.028;2023-05-07T06:18:33;4.07;;;1.70;;
23009;SDS011;11671;49.990;8.028;2023-05-07T06:21:01;2.72;;;1.50;;
23009;SDS011;11671;49.990;8.028;2023-05-07T06:25:52;2.78;;;1.48;;
23009;SDS011;11671;49.990;8.028;2023-05-07T06:28:17;2.20;;;1.50;;
23009;SDS011;11671;49.990;8.028;2023-05-07T06:30:43;3.28;;;1.70;;
23009;SDS011;11671;49.990;8.028;2023-05-07T06:35:34;5.85;;;1.40;;
23009;SDS011;11671;49.990;8.028;2023-05-07T06:40:26;3.30;;;1.60;;
23009;SDS011;11671;49.990;8.028;2023-05-07T06:45:17;4.55;;;1.50;;
23009;SDS011;11671;49.990;8.028;2023-05-07T06:47:44;2.95;;;1.77;;
23009;SDS011;11671;49.990;8.028;2023-05-07T06:52:35;3.63;;;1.40;;
23009;SDS011;11671;49.990;8.028;2023-05-07T06:55:01;5.07;;;1.40;;
23009;SDS011;11671;49.990;8.028;2023-05-07T06:57:26;2.30;;;0.98;;
23009;SDS011;11671;49.990;8.028;2023-05-07T07:02:17;6.22;;;2.22;;
23009;SDS011;11671;49.990;8.028;2023-05-07T07:07:10;5.18;;;1.90;;
23009;SDS011;11671;49.990;8.028;2023-05-07T07:09:36;4.13;;;1.98;;
23009;SDS011;11671;49.990;8.028;2023-05-07T07:14:27;5.47;;;1.42;;
23009;SDS011;11671;49.990;8.028;2023-05-07T07:19:18;2.65;;;1.23;;
23009;SDS011;11671;49.990;8.028;2023-05-07T07:21:45;1.90;;;1.60;;
23009;SDS011;11671;49.990;8.028;2023-05-07T07:26:36;3.10;;;1.33;;
23009;SDS011;11671;49.990;8.028;2023-05-07T07:29:02;6.07;;;2.13;;
23009;SDS011;11671;49.990;8.028;2023-05-07T07:33:53;6.05;;;1.65;;
23009;SDS011;11671;49.990;8.028;2023-05-07T07:38:44;2.45;;;1.38;;
23009;SDS011;11671;49.990;8.028;2023-05-07T07:43:35;4.43;;;1.50;;
23009;SDS011;11671;49.990;8.028;2023-05-07T07:48:26;2.53;;;1.65;;
23009;SDS011;11671;49.990;8.028;2023-05-07T07:50:52;4.03;;;1.85;;
23009;SDS011;11671;49.990;8.028;2023-05-07T07:55:43;3.25;;;1.83;;
23009;SDS011;11671;49.990;8.028;2023-05-07T08:00:34;3.50;;;1.80;;
23009;SDS011;11671;49.990;8.028;2023-05-07T08:05:28;4.53;;;1.90;;
23009;SDS011;11671;49.990;8.028;2023-05-07T08:07:54;2.70;;;1.85;;
23009;SDS011;11671;49.990;8.028;2023-05-07T08:12:47;2.67;;;1.87;;
23009;SDS011;11671;49.990;8.028;2023-05-07T08:15:16;3.50;;;2.10;;
23009;SDS011;11671;49.990;8.028;2023-05-07T08:17:42;3.05;;;1.50;;
23009;SDS011;11671;49.990;8.028;2023-05-07T08:20:08;3.72;;;2.20;;
23009;SDS011;11671;49.990;8.028;2023-05-07T08:25:00;2.75;;;1.90;;
23009;SDS011;11671;49.990;8.028;2023-05-07T08:27:26;5.68;;;1.58;;
23009;SDS011;11671;49.990;8.028;2023-05-07T08:29:51;2.90;;;2.05;;
23009;SDS011;11671;49.990;8.028;2023-05-07T08:34:42;4.25;;;2.05;;
23009;SDS011;11671;49.990;8.028;2023-05-07T08:37:08;3.05;;;2.30;;
23009;SDS011;11671;49.990;8.028;2023-05-07T08:39:34;4.18;;;1.90;;
23009;SDS011;11671;49.990;8.028;2023-05-07T08:42:00;3.75;;;2.20;;
23009;SDS011;11671;49.990;8.028;2023-05-07T08:44:30;2.35;;;2.00;;
23009;SDS011;11671;49.990;8.028;2023-05-07T08:46:59;3.58;;;1.85;;
23009;SDS011;11671;49.990;8.028;2023-05-07T08:49:27;4.35;;;2.35;;
23009;SDS011;11671;49.990;8.028;2023-05-07T08:51:53;3.42;;;2.40;;
23009;SDS011;11671;49.990;8.028;2023-05-07T08:54:20;6.65;;;2.75;;
23009;SDS011;11671;49.990;8.028;2023-05-07T08:56:46;4.30;;;2.60;;
23009;SDS011;11671;49.990;8.028;2023-05-07T08:59:12;2.65;;;2.30;;
23009;SDS011;11671;49.990;8.028;2023-05-07T09:01:38;2.75;;;1.90;;
23009;SDS011;11671;49.990;8.028;2023-05-07T09:04:04;3.30;;;2.40;;
23009;SDS011;11671;49.990;8.028;2023-05-07T09:06:31;3.08;;;2.17;;
23009;SDS011;11671;49.990;8.028;2023-05-07T09:08:58;5.40;;;2.40;;
23009;SDS011;11671;49.990;8.028;2023-05-07T09:11:26;5.47;;;2.17;;
23009;SDS011;11671;49.990;8.028;2023-05-07T09:13:55;3.60;;;1.98;;
23009;SDS011;11671;49.990;8.028;2023-05-07T09:16:23;4.55;;;2.08;;
23009;SDS011;11671;49.990;8.028;2023-05-07T09:18:53;4.53;;;2.30;;
23009;SDS011;11671;49.990;8.028;2023-05-07T09:21:19;5.25;;;2.40;;
23009;SDS011;11671;49.990;8.028;2023-05-07T09:23:47;3.67;;;2.10;;
23009;SDS011;11671;49.990;8.028;2023-05-07T09:26:17;4.30;;;2.70;;
23009;SDS011;11671;49.990;8.028;2023-05-07T09:28:43;3.40;;;2.65;;
23009;SDS011;11671;49.990;8.028;2023-05-07T09:31:11;3.25;;;2.28;;
23009;SDS011;11671;49.990;8.028;2023-05-07T09:33:37;7.32;;;2.50;;
23009;SDS011;11671;49.990;8.028;2023-05-07T09:36:04;3.85;;;2.33;;
23009;SDS011;11671;49.990;8.028;2023-05-07T09:38:34;3.58;;;2.10;;
23009;SDS011;11671;49.990;8.028;2023-05-07T09:41:07;4.60;;;2.53;;
23009;SDS011;11671;49.990;8.028;2023-05-07T09:43:35;3.72;;;2.53;;
23009;SDS011;11671;49.990;8.028;2023-05-07T09:46:03;3.47;;;2.22;;
23009;SDS011;11671;49.990;8.028;2023-05-07T09:51:15;5.07;;;2.50;;
23009;SDS011;11671;49.990;8.028;2023-05-07T09:53:47;5.45;;;2.60;;
23009;SDS011;11671;49.990;8.028;2023-05-07T09:56:14;4.55;;;2.30;;
23009;SDS011;11671;49.990;8.028;2023-05-07T09:58:41;4.53;;;2.33;;
23009;SDS011;11671;49.990;8.028;2023-05-07T10:01:08;4.30;;;2.20;;
23009;SDS011;11671;49.990;8.028;2023-05-07T10:03:36;15.13;;;3.20;;
23009;SDS011;11671;49.990;8.028;2023-05-07T10:06:05;6.20;;;2.17;;
23009;SDS011;11671;49.990;8.028;2023-05-07T10:08:33;5.65;;;2.63;;
23009;SDS011;11671;49.990;8.028;2023-05-07T10:11:00;5.50;;;2.50;;
23009;SDS011;11671;49.990;8.028;2023-05-07T10:13:27;5.05;;;2.90;;
23009;SDS011;11671;49.990;8.028;2023-05-07T10:15:53;3.92;;;2.78;;
23009;SDS011;11671;49.990;8.028;2023-05-07T10:18:20;3.47;;;2.88;;
23009;SDS011;11671;49.990;8.028;2023-05-07T10:20:54;7.15;;;2.55;;
23009;SDS011;11671;49.990;8.028;2023-05-07T10:23:25;2.97;;;2.42;;
23009;SDS011;11671;49.990;8.028;2023-05-07T10:25:52;3.65;;;2.08;;
23009;SDS011;11671;49.990;8.028;2023-05-07T10:28:19;2.80;;;2.35;;
23009;SDS011;11671;49.990;8.028;2023-05-07T10:33:43;3.95;;;3.00;;
23009;SDS011;11671;49.990;8.028;2023-05-07T10:36:11;2.50;;;2.20;;
23009;SDS011;11671;49.990;8.028;2023-05-07T10:38:37;3.80;;;2.92;;
23009;SDS011;11671;49.990;8.028;2023-05-07T10:41:05;4.53;;;2.70;;
23009;SDS011;11671;49.990;8.028;2023-05-07T10:43:38;4.22;;;2.92;;
23009;SDS011;11671;49.990;8.028;2023-05-07T10:46:09;4.47;;;3.15;;
23009;SDS011;11671;49.990;8.028;2023-05-07T10:51:31;8.15;;;3.10;;
23009;SDS011;11671;49.990;8.028;2023-05-07T10:56:39;4.13;;;3.20;;
23009;SDS011;11671;49.990;8.028;2023-05-07T11:01:49;5.28;;;3.40;;
23009;SDS011;11671;49.990;8.028;2023-05-07T11:04:16;4.63;;;2.90;;
23009;SDS011;11671;49.990;8.028;2023-05-07T11:15:03;5.28;;;2.78;;
23009;SDS011;11671;49.990;8.028;2023-05-07T11:17:33;4.90;;;3.30;;
23009;SDS011;11671;49.990;8.028;2023-05-07T11:20:00;2.63;;;2.33;;
23009;SDS011;11671;49.990;8.028;2023-05-07T11:24:55;4.18;;;2.80;;
23009;SDS011;11671;49.990;8.028;2023-05-07T11:27:25;5.93;;;3.05;;
23009;SDS011;11671;49.990;8.028;2023-05-07T11:29:52;3.95;;;2.22;;
23009;SDS011;11671;49.990;8.028;2023-05-07T11:32:24;3.90;;;2.97;;
23009;SDS011;11671;49.990;8.028;2023-05-07T11:34:52;5.97;;;3.60;;
23009;SDS011;11671;49.990;8.028;2023-05-07T11:37:18;4.35;;;2.95;;
23009;SDS011;11671;49.990;8.028;2023-05-07T11:39:45;3.45;;;2.72;;
23009;SDS011;11671;49.990;8.028;2023-05-07T11:42:29;5.25;;;2.95;;
23009;SDS011;11671;49.990;8.028;2023-05-07T11:45:03;6.80;;;3.30;;
23009;SDS011;11671;49.990;8.028;2023-05-07T11:47:30;5.28;;;3.50;;
23009;SDS011;11671;49.990;8.028;2023-05-07T11:49:57;3.47;;;2.97;;
23009;SDS011;11671;49.990;8.028;2023-05-07T11:52:33;6.63;;;3.08;;
23009;SDS011;11671;49.990;8.028;2023-05-07T11:55:02;4.10;;;2.63;;
23009;SDS011;11671;49.990;8.028;2023-05-07T11:57:29;5.22;;;3.78;;
23009;SDS011;11671;49.990;8.028;2023-05-07T11:59:59;4.07;;;2.60;;
23009;SDS011;11671;49.990;8.028;2023-05-07T12:02:26;3.85;;;2.83;;
23009;SDS011;11671;49.990;8.028;2023-05-07T12:04:53;3.80;;;3.22;;
23009;SDS011;11671;49.990;8.028;2023-05-07T12:07:19;4.47;;;3.35;;
23009;SDS011;11671;49.990;8.028;2023-05-07T12:09:45;3.90;;;2.47;;
23009;SDS011;11671;49.990;8.028;2023-05-07T12:12:12;3.58;;;2.72;;
23009;SDS011;11671;49.990;8.028;2023-05-07T12:14:43;3.17;;;2.60;;
23009;SDS011;11671;49.990;8.028;2023-05-07T12:17:10;6.20;;;3.13;;
23009;SDS011;11671;49.990;8.028;2023-05-07T12:19:39;4.45;;;2.63;;
23009;SDS011;11671;49.990;8.028;2023-05-07T12:22:09;5.78;;;2.83;;
23009;SDS011;11671;49.990;8.028;2023-05-07T12:24:47;3.88;;;3.03;;
23009;SDS011;11671;49.990;8.028;2023-05-07T12:27:14;3.38;;;2.70;;
23009;SDS011;11671;49.990;8.028;2023-05-07T12:29:47;4.03;;;2.78;;
23009;SDS011;11671;49.990;8.028;2023-05-07T12:32:17;2.95;;;2.00;;
23009;SDS011;11671;49.990;8.028;2023-05-07T12:34:43;3.88;;;3.30;;
23009;SDS011;11671;49.990;8.028;2023-05-07T12:37:10;5.43;;;3.03;;
23009;SDS011;11671;49.990;8.028;2023-05-07T12:39:35;8.18;;;3.08;;
23009;SDS011;11671;49.990;8.028;2023-05-07T12:42:01;6.90;;;3.03;;
23009;SDS011;11671;49.990;8.028;2023-05-07T12:44:33;7.05;;;2.63;;
23009;SDS011;11671;49.990;8.028;2023-05-07T12:47:02;4.70;;;2.88;;
23009;SDS011;11671;49.990;8.028;2023-05-07T12:49:28;3.97;;;2.50;;
23009;SDS011;11671;49.990;8.028;2023-05-07T12:51:54;6.85;;;2.95;;
23009;SDS011;11671;49.990;8.028;2023-05-07T12:57:05;5.03;;;2.90;;
23009;SDS011;11671;49.990;8.028;2023-05-07T12:59:41;3.42;;;2.50;;
23009;SDS011;11671;49.990;8.028;2023-05-07T13:02:07;3.85;;;2.50;;
23009;SDS011;11671;49.990;8.028;2023-05-07T13:04:34;3.75;;;2.75;;
23009;SDS011;11671;49.990;8.028;2023-05-07T13:07:00;4.72;;;3.10;;
23009;SDS011;11671;49.990;8.028;2023-05-07T13:09:26;7.05;;;3.08;;
23009;SDS011;11671;49.990;8.028;2023-05-07T13:11:53;3.92;;;2.70;;
23009;SDS011;11671;49.990;8.028;2023-05-07T13:14:19;4.50;;;2.70;;
23009;SDS011;11671;49.990;8.028;2023-05-07T13:16:46;4.85;;;2.53;;
23009;SDS011;11671;49.990;8.028;2023-05-07T13:19:14;4.63;;;2.60;;
23009;SDS011;11671;49.990;8.028;2023-05-07T13:21:40;4.53;;;2.22;;
23009;SDS011;11671;49.990;8.028;2023-05-07T13:24:06;3.50;;;2.70;;
23009;SDS011;11671;49.990;8.028;2023-05-07T13:26:32;3.10;;;2.22;;
23009;SDS011;11671;49.990;8.028;2023-05-07T13:28:57;5.80;;;2.53;;
23009;SDS011;11671;49.990;8.028;2023-05-07T13:31:23;3.05;;;2.35;;
23009;SDS011;11671;49.990;8.028;2023-05-07T13:33:49;4.35;;;3.17;;
23009;SDS011;11671;49.990;8.028;2023-05-07T13:36:15;3.13;;;2.15;;
23009;SDS011;11671;49.990;8.028;2023-05-07T13:38:41;5.13;;;2.20;;
23009;SDS011;11671;49.990;8.028;2023-05-07T13:41:06;3.65;;;2.40;;
23009;SDS011;11671;49.990;8.028;2023-05-07T13:43:32;3.95;;;2.25;;
23009;SDS011;11671;49.990;8.028;2023-05-07T13:45:58;3.22;;;2.33;;
23009;SDS011;11671;49.990;8.028;2023-05-07T13:48:24;3.80;;;2.15;;
23009;SDS011;11671;49.990;8.028;2023-05-07T13:50:50;2.85;;;1.80;;
23009;SDS011;11671;49.990;8.028;2023-05-07T13:53:16;3.63;;;2.00;;
23009;SDS011;11671;49.990;8.028;2023-05-07T13:55:43;2.55;;;1.60;;
23009;SDS011;11671;49.990;8.028;2023-05-07T13:58:10;3.17;;;1.27;;
23009;SDS011;11671;49.990;8.028;2023-05-07T14:00:35;4.03;;;1.65;;
23009;SDS011;11671;49.990;8.028;2023-05-07T14:03:01;3.00;;;1.50;;
23009;SDS011;11671;49.990;8.028;2023-05-07T14:05:28;4.35;;;1.63;;
23009;SDS011;11671;49.990;8.028;2023-05-07T14:07:54;4.80;;;1.63;;
23009;SDS011;11671;49.990;8.028;2023-05-07T14:10:21;4.35;;;1.50;;
23009;SDS011;11671;49.990;8.028;2023-05-07T14:12:47;2.47;;;1.75;;
23009;SDS011;11671;49.990;8.028;2023-05-07T14:15:15;4.28;;;1.70;;
23009;SDS011;11671;49.990;8.028;2023-05-07T14:17:41;2.55;;;1.75;;
23009;SDS011;11671;49.990;8.028;2023-05-07T14:20:07;4.05;;;1.48;;
23009;SDS011;11671;49.990;8.028;2023-05-07T14:22:33;2.25;;;1.55;;
23009;SDS011;11671;49.990;8.028;2023-05-07T14:24:59;2.63;;;1.48;;
23009;SDS011;11671;49.990;8.028;2023-05-07T14:27:24;2.13;;;1.42;;
23009;SDS011;11671;49.990;8.028;2023-05-07T14:29:50;2.75;;;1.60;;
23009;SDS011;11671;49.990;8.028;2023-05-07T14:32:19;2.90;;;1.65;;
23009;SDS011;11671;49.990;8.028;2023-05-07T14:34:45;2.58;;;1.13;;
23009;SDS011;11671;49.990;8.028;2023-05-07T14:37:11;6.43;;;1.15;;
23009;SDS011;11671;49.990;8.028;2023-05-07T14:39:37;3.95;;;1.13;;
23009;SDS011;11671;49.990;8.028;2023-05-07T14:42:03;2.40;;;1.40;;
23009;SDS011;11671;49.990;8.028;2023-05-07T14:44:29;3.28;;;1.48;;
23009;SDS011;11671;49.990;8.028;2023-05-07T14:46:56;3.75;;;1.60;;
23009;SDS011;11671;49.990;8.028;2023-05-07T14:49:21;3.22;;;2.10;;
23009;SDS011;11671;49.990;8.028;2023-05-07T14:51:47;3.28;;;1.42;;
23009;SDS011;11671;49.990;8.028;2023-05-07T14:54:13;2.75;;;1.10;;
23009;SDS011;11671;49.990;8.028;2023-05-07T14:56:39;3.17;;;1.55;;
23009;SDS011;11671;49.990;8.028;2023-05-07T14:59:06;1.83;;;1.15;;
23009;SDS011;11671;49.990;8.028;2023-05-07T15:01:34;3.55;;;1.10;;
23009;SDS011;11671;49.990;8.028;2023-05-07T15:04:00;4.70;;;1.65;;
23009;SDS011;11671;49.990;8.028;2023-05-07T15:06:29;2.97;;;1.83;;
23009;SDS011;11671;49.990;8.028;2023-05-07T15:08:56;4.97;;;2.15;;
23009;SDS011;11671;49.990;8.028;2023-05-07T15:11:21;4.15;;;2.15;;
23009;SDS011;11671;49.990;8.028;2023-05-07T15:13:47;2.13;;;1.13;;
23009;SDS011;11671;49.990;8.028;2023-05-07T15:16:14;2.03;;;0.90;;
23009;SDS011;11671;49.990;8.028;2023-05-07T15:18:40;2.15;;;1.20;;
23009;SDS011;11671;49.990;8.028;2023-05-07T15:21:06;1.75;;;0.95;;
23009;SDS011;11671;49.990;8.028;2023-05-07T15:23:31;4.63;;;1.10;;
23009;SDS011;11671;49.990;8.028;2023-05-07T15:25:57;2.63;;;0.93;;
23009;SDS011;11671;49.990;8.028;2023-05-07T15:28:23;4.95;;;1.05;;
23009;SDS011;11671;49.990;8.028;2023-05-07T15:30:50;2.38;;;1.45;;
23009;SDS011;11671;49.990;8.028;2023-05-07T15:33:15;3.45;;;1.33;;
23009;SDS011;11671;49.990;8.028;2023-05-07T15:35:41;3.10;;;1.75;;
23009;SDS011;11671;49.990;8.028;2023-05-07T15:38:06;2.50;;;1.08;;
23009;SDS011;11671;49.990;8.028;2023-05-07T15:40:33;4.00;;;0.98;;
23009;SDS011;11671;49.990;8.028;2023-05-07T15:43:00;3.38;;;1.02;;
23009;SDS011;11671;49.990;8.028;2023-05-07T15:45:25;3.80;;;1.55;;
23009;SDS011;11671;49.990;8.028;2023-05-07T15:47:51;3.95;;;1.55;;
23009;SDS011;11671;49.990;8.028;2023-05-07T15:50:17;5.18;;;1.98;;
23009;SDS011;11671;49.990;8.028;2023-05-07T15:52:42;6.82;;;2.08;;
23009;SDS011;11671;49.990;8.028;2023-05-07T15:55:09;3.58;;;2.10;;
23009;SDS011;11671;49.990;8.028;2023-05-07T15:57:35;3.63;;;2.65;;
23009;SDS011;11671;49.990;8.028;2023-05-07T16:00:01;7.55;;;2.78;;
23009;SDS011;11671;49.990;8.028;2023-05-07T16:02:28;7.93;;;2.38;;
23009;SDS011;11671;49.990;8.028;2023-05-07T16:07:19;4.40;;;2.33;;
23009;SDS011;11671;49.990;8.028;2023-05-07T16:09:44;3.95;;;2.22;;
23009;SDS011;11671;49.990;8.028;2023-05-07T16:14:36;3.10;;;2.47;;
23009;SDS011;11671;49.990;8.028;2023-05-07T16:17:02;5.03;;;2.95;;
23009;SDS011;11671;49.990;8.028;2023-05-07T16:21:53;5.43;;;3.13;;
23009;SDS011;11671;49.990;8.028;2023-05-07T16:26:45;5.28;;;3.25;;
23009;SDS011;11671;49.990;8.028;2023-05-07T16:29:10;4.95;;;3.30;;
23009;SDS011;11671;49.990;8.028;2023-05-07T16:34:02;5.32;;;2.63;;
23009;SDS011;11671;49.990;8.028;2023-05-07T16:36:28;2.95;;;2.10;;
23009;SDS011;11671;49.990;8.028;2023-05-07T16:41:19;4.40;;;2.28;;
23009;SDS011;11671;49.990;8.028;2023-05-07T16:43:46;5.80;;;2.50;;
23009;SDS011;11671;49.990;8.028;2023-05-07T16:48:37;6.13;;;2.25;;
23009;SDS011;11671;49.990;8.028;2023-05-07T16:53:28;9.32;;;3.45;;
23009;SDS011;11671;49.990;8.028;2023-05-07T16:58:20;8.00;;;3.42;;
23009;SDS011;11671;49.990;8.028;2023-05-07T17:00:46;14.93;;;2.92;;
23009;SDS011;11671;49.990;8.028;2023-05-07T17:05:38;16.77;;;4.30;;
23009;SDS011;11671;49.990;8.028;2023-05-07T17:10:29;13.82;;;4.38;;
23009;SDS011;11671;49.990;8.028;2023-05-07T17:15:20;8.25;;;4.60;;
23009;SDS011;11671;49.990;8.028;2023-05-07T17:20:12;9.65;;;3.90;;
23009;SDS011;11671;49.990;8.028;2023-05-07T17:22:38;12.15;;;5.00;;
23009;SDS011;11671;49.990;8.028;2023-05-07T17:27:29;10.90;;;5.15;;
23009;SDS011;11671;49.990;8.028;2023-05-07T17:29:58;8.18;;;4.47;;
23009;SDS011;11671;49.990;8.028;2023-05-07T17:34:50;10.27;;;4.60;;
23009;SDS011;11671;49.990;8.028;2023-05-07T17:39:41;14.20;;;6.68;;
23009;SDS011;11671;49.990;8.028;2023-05-07T17:44:32;9.05;;;4.40;;
23009;SDS011;11671;49.990;8.028;2023-05-07T17:46:58;11.07;;;5.10;;
23009;SDS011;11671;49.990;8.028;2023-05-07T17:51:50;9.25;;;4.32;;
23009;SDS011;11671;49.990;8.028;2023-05-07T17:54:17;10.80;;;4.82;;
23009;SDS011;11671;49.990;8.028;2023-05-07T17:59:08;10.98;;;5.47;;
23009;SDS011;11671;49.990;8.028;2023-05-07T18:01:33;12.90;;;5.60;;
23009;SDS011;11671;49.990;8.028;2023-05-07T18:06:26;12.18;;;5.68;;
23009;SDS011;11671;49.990;8.028;2023-05-07T18:11:18;10.27;;;5.70;;
23009;SDS011;11671;49.990;8.028;2023-05-07T18:13:45;10.73;;;5.88;;
23009;SDS011;11671;49.990;8.028;2023-05-07T18:18:39;9.95;;;6.20;;
23009;SDS011;11671;49.990;8.028;2023-05-07T18:23:31;5.70;;;4.80;;
23009;SDS011;11671;49.990;8.028;2023-05-07T18:26:00;9.20;;;5.38;;
23009;SDS011;11671;49.990;8.028;2023-05-07T18:28:27;9.18;;;5.50;;
23009;SDS011;11671;49.990;8.028;2023-05-07T18:33:18;10.30;;;5.07;;
23009;SDS011;11671;49.990;8.028;2023-05-07T18:38:10;9.35;;;5.07;;
23009;SDS011;11671;49.990;8.028;2023-05-07T18:43:01;9.55;;;4.60;;
23009;SDS011;11671;49.990;8.028;2023-05-07T18:45:30;10.65;;;4.95;;
23009;SDS011;11671;49.990;8.028;2023-05-07T18:47:57;22.60;;;5.13;;
23009;SDS011;11671;49.990;8.028;2023-05-07T18:52:49;6.65;;;4.47;;
23009;SDS011;11671;49.990;8.028;2023-05-07T18:57:41;8.85;;;4.22;;
23009;SDS011;11671;49.990;8.028;2023-05-07T19:00:19;6.03;;;4.20;;
23009;SDS011;11671;49.990;8.028;2023-05-07T19:05:53;7.70;;;4.50;;
23009;SDS011;11671;49.990;8.028;2023-05-07T19:08:16;6.63;;;4.70;;